createdAt,value
2016-10-11T00:00:38.301Z,0
2016-10-11T00:01:38.514Z,0
2016-10-11T00:02:38.179Z,0
2016-10-11T00:03:38.440Z,0
2016-10-11T00:04:38.403Z,0
2016-10-11T00:05:38.057Z,0
2016-10-11T00:06:38.323Z,0
2016-10-11T00:07:37.989Z,0
2016-10-11T00:08:37.945Z,0
2016-10-11T00:09:37.899Z,0
2016-10-11T00:10:38.167Z,0
2016-10-11T00:11:37.823Z,0
2016-10-11T00:12:37.787Z,0
2016-10-11T00:13:37.749Z,0
2016-10-11T00:14:37.716Z,0
2016-10-11T00:15:37.671Z,0
2016-10-11T00:16:37.954Z,0
2016-10-11T00:17:37.890Z,0
2016-10-11T00:18:37.255Z,0
2016-10-11T00:19:37.512Z,0
2016-10-11T00:20:37.789Z,0
2016-10-11T00:21:37.744Z,0
2016-10-11T00:22:37.709Z,0
2016-10-11T00:23:37.365Z,0
2016-10-11T00:24:37.015Z,0
2016-10-11T00:25:37.601Z,0
2016-10-11T00:26:37.564Z,0
2016-10-11T00:27:37.203Z,0
2016-10-11T00:28:37.172Z,0
2016-10-11T00:29:37.428Z,0
2016-10-11T00:30:36.792Z,0
2016-10-11T00:31:36.755Z,0
2016-10-11T00:32:36.719Z,0
2016-10-11T00:33:37.277Z,0
2016-10-11T00:34:37.239Z,0
2016-10-11T00:35:37.202Z,0
2016-10-11T00:36:37.178Z,0
2016-10-11T00:37:36.812Z,0
2016-10-11T00:38:36.778Z,0
2016-10-11T00:39:37.036Z,0
2016-10-11T00:40:36.698Z,0
2016-10-11T00:41:36.968Z,0
2016-10-11T00:42:36.927Z,0
2016-10-11T00:43:36.289Z,0
2016-10-11T00:44:36.844Z,0
2016-10-11T00:45:36.811Z,0
2016-10-11T00:46:36.167Z,0
2016-10-11T00:47:36.733Z,0
2016-10-11T00:48:36.387Z,0
2016-10-11T00:49:36.653Z,0
2016-10-11T00:50:36.310Z,0
2016-10-11T00:51:36.567Z,0
2016-10-11T00:52:36.551Z,0
2016-10-11T00:53:36.487Z,0
2016-10-11T00:54:36.153Z,0
2016-10-11T00:55:36.120Z,0
2016-10-11T00:56:35.775Z,0
2016-10-11T00:57:36.341Z,0
2016-10-11T00:58:36.304Z,0
2016-10-11T00:59:35.958Z,0
2016-10-11T01:00:35.924Z,0
2016-10-11T01:01:36.190Z,0
2016-10-11T01:02:36.145Z,0
2016-10-11T01:03:35.808Z,0
2016-10-11T01:04:35.459Z,0
2016-10-11T01:05:35.724Z,0
2016-10-11T01:06:35.985Z,0
2016-10-11T01:07:35.645Z,0
2016-10-11T01:08:35.908Z,0
2016-10-11T01:09:35.869Z,0
2016-10-11T01:10:35.830Z,0
2016-10-11T01:11:35.790Z,0
2016-10-11T01:12:35.753Z,0
2016-10-11T01:13:35.712Z,0
2016-10-11T01:14:35.672Z,0
2016-10-11T01:15:35.637Z,0
2016-10-11T01:16:35.592Z,0
2016-10-11T01:17:35.251Z,0
2016-10-11T01:18:34.915Z,0
2016-10-11T01:19:35.477Z,0
2016-10-11T01:20:35.435Z,0
2016-10-11T01:21:34.795Z,0
2016-10-11T01:22:35.356Z,0
2016-10-11T01:23:35.015Z,0
2016-10-11T01:24:35.284Z,0
2016-10-11T01:25:34.954Z,0
2016-10-11T01:26:34.604Z,0
2016-10-11T01:27:35.160Z,0
2016-10-11T01:28:35.122Z,0
2016-10-11T01:29:34.779Z,0
2016-10-11T01:30:34.746Z,0
2016-10-11T01:31:34.696Z,0
2016-10-11T01:32:34.658Z,0
2016-10-11T01:33:34.624Z,0
2016-10-11T01:34:33.982Z,0
2016-10-11T01:35:34.547Z,0
2016-10-11T01:36:34.818Z,0
2016-10-11T01:37:34.770Z,0
2016-10-11T01:38:34.732Z,0
2016-10-11T01:39:34.691Z,0
2016-10-11T01:40:34.653Z,0
2016-10-11T01:41:34.313Z,0
2016-10-11T01:42:34.572Z,0
2016-10-11T01:43:34.533Z,0
2016-10-11T01:44:34.518Z,0
2016-10-11T01:45:34.457Z,0
2016-10-11T01:46:34.422Z,0
2016-10-11T01:47:34.379Z,0
2016-10-11T01:48:34.034Z,0
2016-10-11T01:49:34.297Z,0
2016-10-11T01:50:34.260Z,0
2016-10-11T01:51:34.220Z,0
2016-10-11T01:52:34.177Z,0
2016-10-11T01:53:34.151Z,0
2016-10-11T01:54:33.803Z,0
2016-10-11T01:55:33.759Z,0
2016-10-11T01:56:33.722Z,0
2016-10-11T01:57:33.986Z,0
2016-10-11T01:58:33.339Z,0
2016-10-11T01:59:33.907Z,0
2016-10-11T02:00:33.867Z,0
2016-10-11T02:01:33.836Z,0
2016-10-11T02:02:33.790Z,0
2016-10-11T02:03:33.749Z,0
2016-10-11T02:04:33.413Z,0
2016-10-11T02:05:33.670Z,0
2016-10-11T02:06:33.636Z,0
2016-10-11T02:07:33.591Z,0
2016-10-11T02:08:33.554Z,0
2016-10-11T02:09:33.526Z,0
2016-10-11T02:10:33.167Z,0
2016-10-11T02:11:33.134Z,0
2016-10-11T02:12:33.094Z,0
2016-10-11T02:13:33.051Z,0
2016-10-11T02:14:33.019Z,0
2016-10-11T02:15:33.275Z,0
2016-10-11T02:16:32.939Z,0
2016-10-11T02:17:33.210Z,0
2016-10-11T02:18:33.162Z,0
2016-10-11T02:19:33.122Z,0
2016-10-11T02:20:33.077Z,0
2016-10-11T02:21:32.743Z,0
2016-10-11T02:22:32.699Z,0
2016-10-11T02:23:32.658Z,0
2016-10-11T02:24:32.638Z,0
2016-10-11T02:25:32.905Z,0
2016-10-11T02:26:32.852Z,0
2016-10-11T02:27:32.805Z,0
2016-10-11T02:28:32.463Z,0
2016-10-11T02:29:32.426Z,0
2016-10-11T02:30:32.685Z,0
2016-10-11T02:31:32.654Z,0
2016-10-11T02:32:32.004Z,0
2016-10-11T02:33:31.970Z,0
2016-10-11T02:34:32.535Z,0
2016-10-11T02:35:32.489Z,0
2016-10-11T02:36:32.153Z,0
2016-10-11T02:37:32.110Z,0
2016-10-11T02:38:32.070Z,0
2016-10-11T02:39:32.031Z,0
2016-10-11T02:40:31.999Z,0
2016-10-11T02:41:32.253Z,0
2016-10-11T02:42:31.912Z,0
2016-10-11T02:43:31.871Z,0
2016-10-11T02:44:32.137Z,0
2016-10-11T02:45:31.191Z,0
2016-10-11T02:46:32.060Z,0
2016-10-11T02:47:32.019Z,0
2016-10-11T02:48:31.679Z,0
2016-10-11T02:49:31.940Z,0
2016-10-11T02:50:31.924Z,0
2016-10-11T02:51:31.563Z,0
2016-10-11T02:52:31.822Z,0
2016-10-11T02:53:31.787Z,0
2016-10-11T02:54:31.443Z,0
2016-10-11T02:55:31.702Z,0
2016-10-11T02:56:31.361Z,0
2016-10-11T02:57:31.330Z,0
2016-10-11T02:58:31.589Z,0
2016-10-11T02:59:31.554Z,0
2016-10-11T03:00:31.508Z,0
2016-10-11T03:01:31.472Z,0
2016-10-11T03:02:31.428Z,0
2016-10-11T03:03:31.387Z,0
2016-10-11T03:04:31.051Z,0
2016-10-11T03:05:31.313Z,0
2016-10-11T03:06:31.273Z,0
2016-10-11T03:07:31.232Z,0
2016-10-11T03:08:31.192Z,0
2016-10-11T03:09:31.158Z,0
2016-10-11T03:10:31.118Z,0
2016-10-11T03:11:30.771Z,0
2016-10-11T03:12:31.036Z,0
2016-10-11T03:13:31.003Z,0
2016-10-11T03:14:30.963Z,0
2016-10-11T03:15:30.626Z,0
2016-10-11T03:16:30.881Z,0
2016-10-11T03:17:30.839Z,0
2016-10-11T03:18:30.494Z,0
2016-10-11T03:19:30.461Z,0
2016-10-11T03:20:30.724Z,0
2016-10-11T03:21:30.381Z,0
2016-10-11T03:22:30.646Z,0
2016-10-11T03:23:30.307Z,0
2016-10-11T03:24:30.565Z,0
2016-10-11T03:25:30.521Z,0
2016-10-11T03:26:30.485Z,0
2016-10-11T03:27:30.448Z,0
2016-10-11T03:28:30.415Z,0
2016-10-11T03:29:30.364Z,0
2016-10-11T03:30:30.336Z,0
2016-10-11T03:31:29.999Z,0
2016-10-11T03:32:30.256Z,0
2016-10-11T03:33:30.213Z,0
2016-10-11T03:34:29.571Z,0
2016-10-11T03:35:30.141Z,0
2016-10-11T03:36:29.792Z,0
2016-10-11T03:37:30.074Z,0
2016-10-11T03:38:29.415Z,0
2016-10-11T03:39:29.986Z,0
2016-10-11T03:40:29.638Z,0
2016-10-11T03:41:29.903Z,0
2016-10-11T03:42:29.869Z,0
2016-10-11T03:43:29.816Z,0
2016-10-11T03:44:29.205Z,0
2016-10-11T03:45:29.747Z,0
2016-10-11T03:46:29.398Z,0
2016-10-11T03:47:29.673Z,0
2016-10-11T03:48:29.627Z,0
2016-10-11T03:49:29.596Z,0
2016-10-11T03:50:29.240Z,0
2016-10-11T03:51:29.507Z,0
2016-10-11T03:52:29.462Z,0
2016-10-11T03:53:29.427Z,0
2016-10-11T03:54:29.398Z,0
2016-10-11T03:55:29.351Z,0
2016-10-11T03:56:29.312Z,0
2016-10-11T03:57:29.268Z,0
2016-10-11T03:58:29.232Z,0
2016-10-11T03:59:28.888Z,0
2016-10-11T04:00:28.853Z,0
2016-10-11T04:01:29.115Z,0
2016-10-11T04:02:29.084Z,0
2016-10-11T04:03:29.035Z,0
2016-10-11T04:04:28.993Z,0
2016-10-11T04:05:28.956Z,0
2016-10-11T04:06:28.915Z,0
2016-10-11T04:07:28.879Z,0
2016-10-11T04:08:28.539Z,0
2016-10-11T04:09:28.800Z,0
2016-10-11T04:10:28.757Z,0
2016-10-11T04:11:28.418Z,0
2016-10-11T04:12:28.684Z,0
2016-10-11T04:13:28.645Z,0
2016-10-11T04:14:28.605Z,0
2016-10-11T04:15:28.568Z,0
2016-10-11T04:16:28.223Z,0
2016-10-11T04:17:28.187Z,0
2016-10-11T04:18:28.154Z,0
2016-10-11T04:19:28.414Z,0
2016-10-11T04:20:28.382Z,0
2016-10-11T04:21:28.029Z,0
2016-10-11T04:22:28.285Z,0
2016-10-11T04:23:28.248Z,0
2016-10-11T04:24:27.905Z,0
2016-10-11T04:25:28.175Z,0
2016-10-11T04:26:27.846Z,0
2016-10-11T04:27:27.791Z,0
2016-10-11T04:28:27.751Z,0
2016-10-11T04:29:27.714Z,0
2016-10-11T04:30:27.982Z,0
2016-10-11T04:31:27.643Z,0
2016-10-11T04:32:27.592Z,0
2016-10-11T04:33:27.555Z,0
2016-10-11T04:34:27.817Z,0
2016-10-11T04:35:27.471Z,0
2016-10-11T04:36:27.733Z,0
2016-10-11T04:37:27.394Z,0
2016-10-11T04:38:27.363Z,0
2016-10-11T04:39:27.624Z,0
2016-10-11T04:40:26.979Z,0
2016-10-11T04:41:27.540Z,0
2016-10-11T04:42:27.497Z,0
2016-10-11T04:43:27.160Z,0
2016-10-11T04:44:27.119Z,0
2016-10-11T04:45:27.394Z,0
2016-10-11T04:46:27.345Z,0
2016-10-11T04:47:27.303Z,0
2016-10-11T04:48:26.962Z,0
2016-10-11T04:49:27.227Z,0
2016-10-11T04:50:27.185Z,0
2016-10-11T04:51:26.842Z,0
2016-10-11T04:52:27.105Z,0
2016-10-11T04:53:26.490Z,0
2016-10-11T04:54:26.417Z,0
2016-10-11T04:55:26.995Z,0
2016-10-11T04:56:26.644Z,0
2016-10-11T04:57:26.911Z,0
2016-10-11T04:58:26.878Z,0
2016-10-11T04:59:26.828Z,0
2016-10-11T05:00:26.796Z,0
2016-10-11T05:01:26.753Z,0
2016-10-11T05:02:26.719Z,0
2016-10-11T05:03:26.671Z,0
2016-10-11T05:04:26.632Z,0
2016-10-11T05:05:26.596Z,0
2016-10-11T05:06:26.558Z,0
2016-10-11T05:07:26.514Z,0
2016-10-11T05:08:26.477Z,4
2016-10-11T05:09:26.436Z,4
2016-10-11T05:10:26.396Z,0
2016-10-11T05:11:26.358Z,4
2016-10-11T05:12:26.019Z,4
2016-10-11T05:13:26.278Z,4
2016-10-11T05:14:25.937Z,4
2016-10-11T05:15:26.209Z,8
2016-10-11T05:16:26.159Z,8
2016-10-11T05:17:26.121Z,12
2016-10-11T05:18:26.088Z,16
2016-10-11T05:19:25.442Z,16
2016-10-11T05:20:25.697Z,20
2016-10-11T05:21:25.968Z,24
2016-10-11T05:22:25.922Z,28
2016-10-11T05:23:25.886Z,32
2016-10-11T05:24:25.849Z,36
2016-10-11T05:25:25.801Z,44
2016-10-11T05:26:25.464Z,52
2016-10-11T05:27:25.728Z,60
2016-10-11T05:28:25.686Z,68
2016-10-11T05:29:25.340Z,80
2016-10-11T05:30:25.308Z,92
2016-10-11T05:31:25.265Z,100
2016-10-11T05:32:25.524Z,112
2016-10-11T05:33:25.483Z,124
2016-10-11T05:34:25.452Z,136
2016-10-11T05:35:25.118Z,148
2016-10-11T05:36:25.065Z,164
2016-10-11T05:37:25.329Z,180
2016-10-11T05:38:25.289Z,196
2016-10-11T05:39:24.949Z,212
2016-10-11T05:40:24.901Z,228
2016-10-11T05:41:25.177Z,252
2016-10-11T05:42:25.132Z,268
2016-10-11T05:43:25.092Z,292
2016-10-11T05:44:24.748Z,316
2016-10-11T05:45:24.711Z,340
2016-10-11T05:46:24.971Z,368
2016-10-11T05:47:24.927Z,400
2016-10-11T05:48:24.589Z,432
2016-10-11T05:49:24.872Z,460
2016-10-11T05:50:24.817Z,496
2016-10-11T05:51:24.773Z,528
2016-10-11T05:52:24.428Z,560
2016-10-11T05:53:24.695Z,592
2016-10-11T05:54:24.353Z,624
2016-10-11T05:55:24.619Z,664
2016-10-11T05:56:24.576Z,704
2016-10-11T05:57:24.539Z,740
2016-10-11T05:58:24.196Z,780
2016-10-11T05:59:24.457Z,820
2016-10-11T06:00:24.425Z,860
2016-10-11T06:01:24.374Z,904
2016-10-11T06:02:24.036Z,952
2016-10-11T06:03:24.009Z,992
2016-10-11T06:04:23.958Z,1032
2016-10-11T06:05:23.916Z,1064
2016-10-11T06:06:23.880Z,1100
2016-10-11T06:07:24.140Z,1140
2016-10-11T06:08:24.097Z,1176
2016-10-11T06:09:23.762Z,1220
2016-10-11T06:10:23.740Z,1268
2016-10-11T06:11:23.991Z,1312
2016-10-11T06:12:23.954Z,1368
2016-10-11T06:13:23.905Z,1420
2016-10-11T06:14:23.884Z,1484
2016-10-11T06:15:23.520Z,1556
2016-10-11T06:16:23.482Z,1628
2016-10-11T06:17:23.748Z,1696
2016-10-11T06:18:23.717Z,1756
2016-10-11T06:19:23.382Z,1808
2016-10-11T06:20:23.634Z,1860
2016-10-11T06:21:23.592Z,1924
2016-10-11T06:22:22.947Z,1988
2016-10-11T06:23:23.204Z,2064
2016-10-11T06:24:23.469Z,2156
2016-10-11T06:25:23.155Z,2256
2016-10-11T06:26:23.393Z,2352
2016-10-11T06:27:23.355Z,2452
2016-10-11T06:28:23.319Z,2552
2016-10-11T06:29:23.269Z,2640
2016-10-11T06:30:23.231Z,2748
2016-10-11T06:31:22.582Z,2864
2016-10-11T06:32:23.151Z,3000
2016-10-11T06:33:23.118Z,3152
2016-10-11T06:34:22.471Z,3328
2016-10-11T06:35:22.732Z,3516
2016-10-11T06:36:22.993Z,3688
2016-10-11T06:37:22.958Z,3860
2016-10-11T06:38:22.913Z,4020
2016-10-11T06:39:22.578Z,4172
2016-10-11T06:40:22.849Z,4296
2016-10-11T06:41:22.195Z,4416
2016-10-11T06:42:22.155Z,4560
2016-10-11T06:43:22.412Z,4740
2016-10-11T06:44:22.680Z,4948
2016-10-11T06:45:22.638Z,5164
2016-10-11T06:46:22.297Z,5416
2016-10-11T06:47:22.263Z,5664
2016-10-11T06:48:22.524Z,5904
2016-10-11T06:49:22.185Z,6100
2016-10-11T06:50:22.446Z,6252
2016-10-11T06:51:22.412Z,6320
2016-10-11T06:52:22.062Z,6372
2016-10-11T06:53:22.030Z,6396
2016-10-11T06:54:22.297Z,6404
2016-10-11T06:55:22.251Z,6444
2016-10-11T06:56:22.213Z,6492
2016-10-11T06:57:22.173Z,6512
2016-10-11T06:58:22.143Z,6500
2016-10-11T06:59:22.095Z,6484
2016-10-11T07:00:21.758Z,6464
2016-10-11T07:01:21.716Z,6432
2016-10-11T07:02:21.678Z,6412
2016-10-11T07:03:21.948Z,6432
2016-10-11T07:04:21.602Z,6460
2016-10-11T07:05:21.863Z,6444
2016-10-11T07:06:21.820Z,6440
2016-10-11T07:07:21.488Z,6472
2016-10-11T07:08:21.441Z,6480
2016-10-11T07:09:21.708Z,6496
2016-10-11T07:10:21.674Z,6500
2016-10-11T07:11:21.338Z,6500
2016-10-11T07:12:21.297Z,6524
2016-10-11T07:13:21.557Z,6552
2016-10-11T07:14:21.220Z,6600
2016-10-11T07:15:21.476Z,6636
2016-10-11T07:16:21.443Z,6708
2016-10-11T07:17:21.399Z,6808
2016-10-11T07:18:21.377Z,6976
2016-10-11T07:19:21.030Z,7156
2016-10-11T07:20:20.988Z,7364
2016-10-11T07:21:21.252Z,7572
2016-10-11T07:22:20.609Z,7744
2016-10-11T07:23:21.191Z,7892
2016-10-11T07:24:21.140Z,8048
2016-10-11T07:25:20.794Z,8228
2016-10-11T07:26:21.063Z,8392
2016-10-11T07:27:20.711Z,8552
2016-10-11T07:28:20.984Z,8700
2016-10-11T07:29:20.639Z,8868
2016-10-11T07:30:20.904Z,9116
2016-10-11T07:31:20.862Z,9372
2016-10-11T07:32:20.828Z,9560
2016-10-11T07:33:20.792Z,9716
2016-10-11T07:34:20.755Z,9864
2016-10-11T07:35:20.420Z,10072
2016-10-11T07:36:20.683Z,10308
2016-10-11T07:37:20.345Z,10652
2016-10-11T07:38:20.307Z,10972
2016-10-11T07:39:19.957Z,11232
2016-10-11T07:40:20.245Z,11568
2016-10-11T07:41:20.497Z,11684
2016-10-11T07:42:20.453Z,11536
2016-10-11T07:43:20.414Z,11600
2016-10-11T07:44:20.390Z,11756
2016-10-11T07:45:20.334Z,11984
2016-10-11T07:46:20.304Z,12276
2016-10-11T07:47:19.656Z,12640
2016-10-11T07:48:20.230Z,13064
2016-10-11T07:49:20.193Z,13500
2016-10-11T07:50:20.154Z,13948
2016-10-11T07:51:20.133Z,14424
2016-10-11T07:52:19.773Z,14952
2016-10-11T07:53:20.038Z,15508
2016-10-11T07:54:20.005Z,16328
2016-10-11T07:55:19.962Z,17056
2016-10-11T07:56:19.635Z,17664
2016-10-11T07:57:19.588Z,18720
2016-10-11T07:58:19.855Z,19104
2016-10-11T07:59:19.816Z,20032
2016-10-11T08:00:19.784Z,20928
2016-10-11T08:01:19.735Z,21792
2016-10-11T08:02:19.097Z,22720
2016-10-11T08:03:19.670Z,22816
2016-10-11T08:04:19.637Z,23360
2016-10-11T08:05:19.594Z,24128
2016-10-11T08:06:19.549Z,26080
2016-10-11T08:07:19.527Z,25696
2016-10-11T08:08:19.489Z,27136
2016-10-11T08:09:19.450Z,29184
2016-10-11T08:10:19.423Z,30176
2016-10-11T08:11:19.376Z,33344
2016-10-11T08:12:19.364Z,33024
2016-10-11T08:13:19.311Z,33600
2016-10-11T08:14:18.969Z,35648
2016-10-11T08:15:19.229Z,37920
2016-10-11T08:16:19.205Z,36352
2016-10-11T08:17:19.163Z,35488
2016-10-11T08:18:19.133Z,41312
2016-10-11T08:19:18.802Z,33984
2016-10-11T08:20:18.760Z,32320
2016-10-11T08:21:19.026Z,32576
2016-10-11T08:22:18.995Z,32128
2016-10-11T08:23:18.965Z,32608
2016-10-11T08:24:18.927Z,32960
2016-10-11T08:25:18.895Z,34464
2016-10-11T08:26:18.558Z,35808
2016-10-11T08:27:18.829Z,47680
2016-10-11T08:28:18.794Z,36736
2016-10-11T08:29:18.761Z,34528
2016-10-11T08:30:18.724Z,36736
2016-10-11T08:31:18.391Z,33888
2016-10-11T08:32:18.359Z,32064
2016-10-11T08:33:18.023Z,32704
2016-10-11T08:34:18.601Z,33024
2016-10-11T08:35:18.564Z,35776
2016-10-11T08:36:18.534Z,37952
2016-10-11T08:37:18.498Z,45536
2016-10-11T08:38:18.465Z,37728
2016-10-11T08:39:18.432Z,59168
2016-10-11T08:40:18.408Z,72736
2016-10-11T08:41:18.062Z,76352
2016-10-11T08:42:18.331Z,69536
2016-10-11T08:43:18.006Z,60352
2016-10-11T08:44:17.968Z,59616
2016-10-11T08:45:17.930Z,56096
2016-10-11T08:46:18.210Z,59104
2016-10-11T08:47:18.177Z,78688
2016-10-11T08:48:18.145Z,40352
2016-10-11T08:49:18.118Z,37760
2016-10-11T08:50:17.784Z,61824
2016-10-11T08:51:17.448Z,43968
2016-10-11T08:52:17.719Z,41152
2016-10-11T08:53:17.998Z,40384
2016-10-11T08:54:17.963Z,45344
2016-10-11T08:55:17.934Z,55776
2016-10-11T08:56:17.904Z,44160
2016-10-11T08:57:17.569Z,41728
2016-10-11T08:58:17.843Z,39456
2016-10-11T08:59:17.811Z,39200
2016-10-11T09:00:17.791Z,34784
2016-10-11T09:01:17.451Z,36256
2016-10-11T09:02:17.435Z,33344
2016-10-11T09:03:17.693Z,39584
2016-10-11T09:04:17.664Z,30464
2016-10-11T09:05:17.326Z,31328
2016-10-11T09:06:17.319Z,31168
2016-10-11T09:07:17.288Z,33120
2016-10-11T09:08:17.539Z,37632
2016-10-11T09:09:17.525Z,44032
2016-10-11T09:10:17.482Z,40160
2016-10-11T09:11:17.458Z,51680
2016-10-11T09:12:17.416Z,45056
2016-10-11T09:13:17.746Z,35968
2016-10-11T09:14:17.363Z,93376
2016-10-11T09:15:17.319Z,93856
2016-10-11T09:16:17.296Z,94400
2016-10-11T09:17:17.258Z,64512
2016-10-11T09:18:16.928Z,80576
2016-10-11T09:19:16.899Z,78272
2016-10-11T09:20:16.872Z,74560
2016-10-11T09:21:16.842Z,49216
2016-10-11T09:22:17.114Z,39744
2016-10-11T09:23:17.091Z,42176
2016-10-11T09:24:16.762Z,44384
2016-10-11T09:25:17.024Z,49696
2016-10-11T09:26:17.007Z,42144
2016-10-11T09:27:16.973Z,73632
2016-10-11T09:28:16.636Z,99200
2016-10-11T09:29:16.605Z,61600
2016-10-11T09:30:16.578Z,76224
2016-10-11T09:31:16.854Z,56224
2016-10-11T09:32:16.823Z,70144
2016-10-11T09:33:16.495Z,58496
2016-10-11T09:34:16.764Z,59680
2016-10-11T09:35:16.748Z,54080
2016-10-11T09:36:16.704Z,45312
2016-10-11T09:37:16.680Z,55520
2016-10-11T09:38:16.645Z,54496
2016-10-11T09:39:16.634Z,42272
2016-10-11T09:40:16.584Z,35424
2016-10-11T09:41:16.562Z,32384
2016-10-11T09:42:16.226Z,32800
2016-10-11T09:43:16.197Z,32416
2016-10-11T09:44:16.471Z,34656
2016-10-11T09:45:16.440Z,31040
2016-10-11T09:46:16.421Z,30784
2016-10-11T09:47:16.380Z,29600
2016-10-11T09:48:16.354Z,29632
2016-10-11T09:49:16.329Z,34080
2016-10-11T09:50:15.995Z,28704
2016-10-11T09:51:15.665Z,29184
2016-10-11T09:52:15.928Z,30080
2016-10-11T09:53:15.915Z,27040
2016-10-11T09:54:16.181Z,27104
2016-10-11T09:55:15.535Z,25568
2016-10-11T09:56:16.119Z,25440
2016-10-11T09:57:15.777Z,25024
2016-10-11T09:58:16.054Z,25888
2016-10-11T09:59:16.016Z,27648
2016-10-11T10:00:15.692Z,27712
2016-10-11T10:01:15.953Z,27968
2016-10-11T10:02:15.929Z,28672
2016-10-11T10:03:15.895Z,28480
2016-10-11T10:04:15.855Z,28224
2016-10-11T10:05:15.532Z,29984
2016-10-11T10:06:15.196Z,30720
2016-10-11T10:07:15.771Z,31392
2016-10-11T10:08:15.734Z,29984
2016-10-11T10:09:15.703Z,27232
2016-10-11T10:10:15.361Z,26112
2016-10-11T10:11:15.643Z,25920
2016-10-11T10:12:15.614Z,25888
2016-10-11T10:13:15.578Z,25792
2016-10-11T10:14:15.241Z,25760
2016-10-11T10:15:15.509Z,25888
2016-10-11T10:16:15.472Z,26272
2016-10-11T10:17:15.139Z,26848
2016-10-11T10:18:15.416Z,27200
2016-10-11T10:19:15.377Z,28192
2016-10-11T10:20:14.441Z,30784
2016-10-11T10:21:15.313Z,29632
2016-10-11T10:22:15.289Z,28096
2016-10-11T10:23:14.942Z,28384
2016-10-11T10:24:14.918Z,31872
2016-10-11T10:25:14.884Z,30080
2016-10-11T10:26:15.157Z,32640
2016-10-11T10:27:15.117Z,31936
2016-10-11T10:28:15.095Z,29120
2016-10-11T10:29:15.065Z,29024
2016-10-11T10:30:14.419Z,27680
2016-10-11T10:31:14.686Z,31616
2016-10-11T10:32:14.673Z,28000
2016-10-11T10:33:14.632Z,29152
2016-10-11T10:34:14.898Z,27168
2016-10-11T10:35:14.875Z,27104
2016-10-11T10:36:14.834Z,19776
2016-10-11T10:37:14.204Z,41600
2016-10-11T10:38:14.771Z,21824
2016-10-11T10:39:14.443Z,17856
2016-10-11T10:40:14.717Z,23648
2016-10-11T10:41:14.381Z,49152
2016-10-11T10:42:14.047Z,42336
2016-10-11T10:43:14.614Z,69760
2016-10-11T10:44:13.979Z,40512
2016-10-11T10:45:14.555Z,44480
2016-10-11T10:46:14.529Z,55040
2016-10-11T10:47:14.491Z,51712
2016-10-11T10:48:14.458Z,68864
2016-10-11T10:49:14.127Z,66496
2016-10-11T10:50:14.396Z,12320
2016-10-11T10:51:14.362Z,66912
2016-10-11T10:52:14.037Z,68608
2016-10-11T10:53:14.306Z,71616
2016-10-11T10:54:13.977Z,30752
2016-10-11T10:55:13.948Z,71488
2016-10-11T10:56:13.954Z,12196
2016-10-11T10:57:14.194Z,10000
2016-10-11T10:58:14.162Z,10688
2016-10-11T10:59:14.127Z,25184
2016-10-11T11:00:14.119Z,23584
2016-10-11T11:01:13.779Z,21856
2016-10-11T11:02:13.738Z,20800
2016-10-11T11:03:13.703Z,20320
2016-10-11T11:04:13.979Z,21728
2016-10-11T11:05:13.644Z,22592
2016-10-11T11:06:13.615Z,20672
2016-10-11T11:07:13.582Z,19200
2016-10-11T11:08:13.860Z,18592
2016-10-11T11:09:13.860Z,18208
2016-10-11T11:10:13.812Z,17728
2016-10-11T11:11:13.478Z,17244
2016-10-11T11:12:13.742Z,17536
2016-10-11T11:13:13.105Z,17568
2016-10-11T11:14:13.374Z,10168
2016-10-11T11:15:13.650Z,17004
2016-10-11T11:16:13.622Z,16948
2016-10-11T11:17:13.590Z,18560
2016-10-11T11:18:13.257Z,30432
2016-10-11T11:19:13.527Z,51168
2016-10-11T11:20:13.500Z,8784
2016-10-11T11:21:13.170Z,8832
2016-10-11T11:22:13.437Z,17372
2016-10-11T11:23:13.404Z,14920
2016-10-11T11:24:13.371Z,14628
2016-10-11T11:25:12.736Z,14716
2016-10-11T11:26:13.316Z,15064
2016-10-11T11:27:13.278Z,14164
2016-10-11T11:28:13.248Z,10548
2016-10-11T11:29:13.220Z,13748
2016-10-11T11:30:13.183Z,13972
2016-10-11T11:31:13.161Z,13792
2016-10-11T11:32:13.123Z,13480
2016-10-11T11:33:12.790Z,13172
2016-10-11T11:34:13.057Z,12644
2016-10-11T11:35:13.026Z,12164
2016-10-11T11:36:12.687Z,11804
2016-10-11T11:37:12.652Z,11272
2016-10-11T11:38:12.923Z,11632
2016-10-11T11:39:12.891Z,11392
2016-10-11T11:40:12.560Z,11276
2016-10-11T11:41:12.821Z,11052
2016-10-11T11:42:12.803Z,10404
2016-10-11T11:43:12.764Z,9480
2016-10-11T11:44:12.425Z,8604
2016-10-11T11:45:12.392Z,8352
2016-10-11T11:46:12.655Z,8216
2016-10-11T11:47:12.334Z,8060
2016-10-11T11:48:11.989Z,8048
2016-10-11T11:49:12.257Z,8060
2016-10-11T11:50:12.222Z,8040
2016-10-11T11:51:12.181Z,8076
2016-10-11T11:52:12.473Z,8220
2016-10-11T11:53:12.473Z,8360
2016-10-11T11:54:12.393Z,8480
2016-10-11T11:55:12.368Z,8716
2016-10-11T11:56:12.312Z,9504
2016-10-11T11:57:12.297Z,9768
2016-10-11T11:58:11.945Z,10160
2016-10-11T11:59:12.217Z,10436
2016-10-11T12:00:11.886Z,11584
2016-10-11T12:01:12.146Z,11288
2016-10-11T12:02:11.811Z,9884
2016-10-11T12:03:12.086Z,8336
2016-10-11T12:04:12.046Z,7580
2016-10-11T12:05:11.710Z,7432
2016-10-11T12:06:11.984Z,7620
2016-10-11T12:07:11.938Z,7824
2016-10-11T12:08:11.911Z,8828
2016-10-11T12:09:11.873Z,9332
2016-10-11T12:10:11.843Z,9300
2016-10-11T12:11:11.500Z,8912
2016-10-11T12:12:11.161Z,8316
2016-10-11T12:13:11.731Z,7480
2016-10-11T12:14:11.403Z,7400
2016-10-11T12:15:11.670Z,7424
2016-10-11T12:16:11.637Z,7684
2016-10-11T12:17:11.291Z,7652
2016-10-11T12:18:11.567Z,7540
2016-10-11T12:19:11.521Z,7368
2016-10-11T12:20:10.883Z,7444
2016-10-11T12:21:11.455Z,7528
2016-10-11T12:22:11.417Z,7652
2016-10-11T12:23:11.085Z,7792
2016-10-11T12:24:11.347Z,8016
2016-10-11T12:25:11.011Z,8428
2016-10-11T12:26:11.276Z,8908
2016-10-11T12:27:11.244Z,9240
2016-10-11T12:28:11.213Z,9468
2016-10-11T12:29:11.179Z,9908
2016-10-11T12:30:11.136Z,10656
2016-10-11T12:31:11.115Z,11372
2016-10-11T12:32:11.069Z,12252
2016-10-11T12:33:11.032Z,12712
2016-10-11T12:34:11.006Z,12976
2016-10-11T12:35:10.969Z,13152
2016-10-11T12:36:10.933Z,13204
2016-10-11T12:37:10.599Z,12600
2016-10-11T12:38:10.859Z,11116
2016-10-11T12:39:10.523Z,9976
2016-10-11T12:40:10.488Z,9392
2016-10-11T12:41:10.762Z,8900
2016-10-11T12:42:10.743Z,8796
2016-10-11T12:43:10.695Z,8872
2016-10-11T12:44:10.653Z,8928
2016-10-11T12:45:10.040Z,8828
2016-10-11T12:46:10.284Z,8684
2016-10-11T12:47:10.249Z,8516
2016-10-11T12:48:10.211Z,8520
2016-10-11T12:49:10.188Z,8780
2016-10-11T12:50:10.144Z,9216
2016-10-11T12:51:10.406Z,9608
2016-10-11T12:52:10.381Z,9768
2016-10-11T12:53:10.343Z,9944
2016-10-11T12:54:10.318Z,10208
2016-10-11T12:55:10.275Z,10548
2016-10-11T12:56:10.237Z,10848
2016-10-11T12:57:10.206Z,11116
2016-10-11T12:58:09.881Z,11264
2016-10-11T12:59:10.134Z,11452
2016-10-11T13:00:09.502Z,11476
2016-10-11T13:01:09.767Z,11552
2016-10-11T13:02:09.422Z,11396
2016-10-11T13:03:10.116Z,11088
2016-10-11T13:04:09.660Z,10464
2016-10-11T13:05:09.936Z,9764
2016-10-11T13:06:09.896Z,9612
2016-10-11T13:07:09.559Z,9652
2016-10-11T13:08:09.536Z,9356
2016-10-11T13:09:09.793Z,9240
2016-10-11T13:10:09.753Z,9160
2016-10-11T13:11:09.426Z,9440
2016-10-11T13:12:09.693Z,9572
2016-10-11T13:13:09.355Z,9560
2016-10-11T13:14:09.019Z,9436
2016-10-11T13:15:09.281Z,9288
2016-10-11T13:16:09.558Z,9068
2016-10-11T13:17:09.519Z,8844
2016-10-11T13:18:09.484Z,8536
2016-10-11T13:19:09.446Z,8200
2016-10-11T13:20:09.118Z,7864
2016-10-11T13:21:09.380Z,7628
2016-10-11T13:22:09.354Z,7492
2016-10-11T13:23:09.320Z,7560
2016-10-11T13:24:08.969Z,7692
2016-10-11T13:25:09.244Z,7920
2016-10-11T13:26:09.202Z,8164
2016-10-11T13:27:08.862Z,8512
2016-10-11T13:28:09.128Z,8856
2016-10-11T13:29:09.100Z,9132
2016-10-11T13:30:08.779Z,9400
2016-10-11T13:31:09.031Z,9604
2016-10-11T13:32:08.998Z,9692
2016-10-11T13:33:08.665Z,9664
2016-10-11T13:34:08.923Z,9540
2016-10-11T13:35:08.884Z,9392
2016-10-11T13:36:08.854Z,9248
2016-10-11T13:37:08.818Z,9168
2016-10-11T13:38:08.486Z,9020
2016-10-11T13:39:08.451Z,8848
2016-10-11T13:40:08.110Z,8536
2016-10-11T13:41:08.678Z,8236
2016-10-11T13:42:08.639Z,7952
2016-10-11T13:43:08.607Z,7624